Currently 47°F in Simi Valley, California, USA
47°F
49°F / 47°F
9 mph E
0.00"
Sunday, January 21, 2018 4:33 AM PST

Simi Valley, California Climate Summary
Typical November Day

Normal High:    72.8°F (22.7°C)
Normal Low:    51.8°F (11.0°C)
Average:    61.4°F (16.3°C)

Hour    Temperature    Wind Speed    Humidity
12:00 AM    57°F (14°C)    4 mph    58%
1:00 AM    56°F (14°C)    4 mph    58%
2:00 AM    56°F (13°C)    4 mph    58%
3:00 AM    56°F (13°C)    5 mph    59%
4:00 AM    55°F (13°C)    5 mph    59%
5:00 AM    55°F (13°C)    5 mph    59%
6:00 AM    55°F (13°C)    4 mph    60%
7:00 AM    55°F (13°C)    5 mph    60%
8:00 AM    57°F (14°C)    5 mph    59%
9:00 AM    62°F (17°C)    5 mph    54%
10:00 AM    66°F (19°C)    6 mph    47%
11:00 AM    69°F (20°C)    6 mph    43%
12:00 PM    71°F (21°C)    6 mph    40%
1:00 PM    72°F (22°C)    6 mph    38%
2:00 PM    72°F (22°C)    7 mph    39%
3:00 PM    70°F (21°C)    7 mph    41%
4:00 PM    69°F (20°C)    6 mph    45%
5:00 PM    66°F (19°C)    5 mph    49%
6:00 PM    63°F (17°C)    4 mph    53%
7:00 PM    61°F (16°C)    4 mph    54%
8:00 PM    59°F (15°C)    4 mph    56%
9:00 PM    58°F (15°C)    4 mph    57%
10:00 PM    58°F (14°C)    4 mph    57%
11:00 PM    57°F (14°C)    5 mph    57%
 

The Simi Valley, California weather pages are a service of WeatherCurrents.
Copyright ©Sun Jan 21 04:34:39 PST 2018  WeatherCurrents. All rights reserved. - Submit questions and comments - Privacy Policy